Time,TemperatureF,DewpointF,PressureIn,WindDirection,WindDirectionDegrees,WindSpeedMPH,WindSpeedGustMPH,Humidity,HourlyPrecipIn,Conditions,Clouds,dailyrainin,SoftwareType,DateUTC
2014-04-17 00:01:00,65.0,34.5,29.86,WSW,257,4.0,14.0,32,0.00,,---,0.00,VWS V14.01,2014-04-17 07:01:00,
2014-04-17 00:06:00,65.0,34.5,29.86,West,274,8.0,14.0,32,0.00,,---,0.00,VWS V14.01,2014-04-17 07:06:00,
2014-04-17 00:11:00,65.2,34.6,29.86,West,277,5.0,14.0,32,0.00,,---,0.00,VWS V14.01,2014-04-17 07:11:00,
2014-04-17 00:16:00,65.0,36.0,29.87,West,269,4.0,14.0,34,0.00,,---,0.00,VWS V14.01,2014-04-17 07:16:00,
2014-04-17 00:21:00,64.6,35.6,29.87,West,260,7.0,14.0,34,0.00,,---,0.00,VWS V14.01,2014-04-17 07:21:00,
2014-04-17 00:26:00,65.0,36.0,29.87,WSW,249,6.0,14.0,34,0.00,,---,0.00,VWS V14.01,2014-04-17 07:26:00,
2014-04-17 00:31:00,64.7,35.7,29.87,West,280,4.0,12.0,34,0.00,,---,0.00,VWS V14.01,2014-04-17 07:31:00,
2014-04-17 00:36:00,64.6,36.3,29.87,SW,232,9.0,13.0,35,0.00,,---,0.00,VWS V14.01,2014-04-17 07:36:00,
2014-04-17 00:41:00,64.5,37.0,29.87,West,274,5.0,15.0,36,0.00,,---,0.00,VWS V14.01,2014-04-17 07:41:00,
2014-04-17 00:46:00,64.4,36.9,29.87,West,273,7.0,15.0,36,0.00,,---,0.00,VWS V14.01,2014-04-17 07:46:00,
2014-04-17 00:51:00,64.3,36.8,29.88,SW,231,5.0,15.0,36,0.00,,---,0.00,VWS V14.01,2014-04-17 07:51:00,
2014-04-17 00:56:00,64.1,37.3,29.87,WNW,283,5.0,15.0,37,0.00,,---,0.00,VWS V14.01,2014-04-17 07:56:00,
2014-04-17 01:01:00,64.1,37.3,29.87,WSW,244,9.0,9.0,37,0.00,,---,0.00,VWS V14.01,2014-04-17 08:01:00,
2014-04-17 01:06:00,64.1,38.0,29.88,South,191,5.0,12.0,38,0.00,,---,0.00,VWS V14.01,2014-04-17 08:06:00,
2014-04-17 01:11:00,63.9,37.8,29.87,WNW,283,5.0,12.0,38,0.00,,---,0.00,VWS V14.01,2014-04-17 08:11:00,
2014-04-17 01:16:00,64.1,38.0,29.87,West,274,7.0,13.0,38,0.00,,---,0.00,VWS V14.01,2014-04-17 08:16:00,
2014-04-17 01:21:00,64.1,38.7,29.87,West,259,3.0,13.0,39,0.00,,---,0.00,VWS V14.01,2014-04-17 08:21:00,
2014-04-17 01:26:00,63.8,38.4,29.86,WSW,245,10.0,14.0,39,0.00,,---,0.00,VWS V14.01,2014-04-17 08:26:00,
2014-04-17 01:31:00,63.7,39.0,29.86,WSW,237,4.0,10.0,40,0.00,,---,0.00,VWS V14.01,2014-04-17 08:31:00,
2014-04-17 01:36:00,63.6,38.9,29.86,WSW,250,3.0,10.0,40,0.00,,---,0.00,VWS V14.01,2014-04-17 08:36:00,
2014-04-17 01:41:00,63.3,38.6,29.86,West,271,8.0,12.0,40,0.00,,---,0.00,VWS V14.01,2014-04-17 08:41:00,
2014-04-17 01:46:00,63.2,39.1,29.86,WSW,256,4.0,12.0,41,0.00,,---,0.00,VWS V14.01,2014-04-17 08:46:00,
2014-04-17 01:51:00,62.8,39.4,29.85,WSW,255,5.0,12.0,42,0.00,,---,0.00,VWS V14.01,2014-04-17 08:51:00,
2014-04-17 01:56:00,62.4,39.0,29.85,WSW,249,5.0,12.0,42,0.00,,---,0.00,VWS V14.01,2014-04-17 08:56:00,
2014-04-17 02:01:00,62.2,39.5,29.85,WSW,245,3.0,8.0,43,0.00,,---,0.00,VWS V14.01,2014-04-17 09:01:00,
2014-04-17 02:06:00,62.0,39.3,29.85,WSW,250,5.0,10.0,43,0.00,,---,0.00,VWS V14.01,2014-04-17 09:06:00,
2014-04-17 02:11:00,62.1,39.4,29.85,West,274,6.0,10.0,43,0.00,,---,0.00,VWS V14.01,2014-04-17 09:11:00,
2014-04-17 02:16:00,62.0,39.9,29.85,West,259,5.0,10.0,44,0.00,,---,0.00,VWS V14.01,2014-04-17 09:16:00,
2014-04-17 02:21:00,61.7,39.6,29.85,SW,235,5.0,10.0,44,0.00,,---,0.00,VWS V14.01,2014-04-17 09:21:00,
2014-04-17 02:26:00,61.7,39.6,29.84,West,280,6.0,12.0,44,0.00,,---,0.00,VWS V14.01,2014-04-17 09:26:00,
2014-04-17 02:31:00,62.1,40.0,29.84,West,271,3.0,8.0,44,0.00,,---,0.00,VWS V14.01,2014-04-17 09:31:00,
2014-04-17 02:36:00,62.0,40.4,29.84,WSW,257,3.0,8.0,45,0.00,,---,0.00,VWS V14.01,2014-04-17 09:36:00,
2014-04-17 02:41:00,61.9,40.9,29.84,West,262,3.0,10.0,46,0.00,,---,0.00,VWS V14.01,2014-04-17 09:41:00,
2014-04-17 02:46:00,61.9,40.3,29.84,WNW,302,10.0,12.0,45,0.00,,---,0.00,VWS V14.01,2014-04-17 09:46:00,
2014-04-17 02:51:00,61.8,40.8,29.84,WSW,240,3.0,12.0,46,0.00,,---,0.00,VWS V14.01,2014-04-17 09:51:00,
2014-04-17 02:56:00,61.6,41.2,29.84,West,269,3.0,12.0,47,0.00,,---,0.00,VWS V14.01,2014-04-17 09:56:00,
2014-04-17 03:01:00,61.4,41.0,29.84,WSW,245,4.0,8.0,47,0.00,,---,0.00,VWS V14.01,2014-04-17 10:01:00,
2014-04-17 03:06:00,61.3,41.5,29.84,WSW,245,5.0,8.0,48,0.00,,---,0.00,VWS V14.01,2014-04-17 10:06:00,
2014-04-17 03:11:00,61.2,41.4,29.83,West,271,6.0,9.0,48,0.00,,---,0.00,VWS V14.01,2014-04-17 10:11:00,
2014-04-17 03:16:00,61.1,41.3,29.83,West,260,3.0,9.0,48,0.00,,---,0.00,VWS V14.01,2014-04-17 10:16:00,
2014-04-17 03:21:00,61.2,40.8,29.83,WSW,255,5.0,9.0,47,0.00,,---,0.00,VWS V14.01,2014-04-17 10:21:00,
2014-04-17 03:26:00,61.2,40.3,29.83,SW,224,5.0,9.0,46,0.00,,---,0.00,VWS V14.01,2014-04-17 10:26:00,
2014-04-17 03:31:00,61.0,40.1,29.83,SW,224,4.0,7.0,46,0.00,,---,0.00,VWS V14.01,2014-04-17 10:31:00,
2014-04-17 03:36:00,60.7,40.4,29.83,WSW,250,3.0,8.0,47,0.00,,---,0.00,VWS V14.01,2014-04-17 10:36:00,
2014-04-17 03:41:00,60.9,40.0,29.83,West,274,5.0,9.0,46,0.00,,---,0.00,VWS V14.01,2014-04-17 10:41:00,
2014-04-17 03:46:00,60.9,40.0,29.83,WSW,255,4.0,9.0,46,0.00,,---,0.00,VWS V14.01,2014-04-17 10:46:00,
2014-04-17 03:51:00,60.9,40.0,29.83,WSW,258,5.0,9.0,46,0.00,,---,0.00,VWS V14.01,2014-04-17 10:51:00,
2014-04-17 03:56:00,60.8,40.5,29.83,WSW,250,4.0,9.0,47,0.00,,---,0.00,VWS V14.01,2014-04-17 10:56:00,
2014-04-17 04:01:00,60.7,39.3,29.83,West,266,5.0,8.0,45,0.00,,---,0.00,VWS V14.01,2014-04-17 11:01:00,
2014-04-17 04:06:00,60.8,38.8,29.83,WNW,297,4.0,8.0,44,0.00,,---,0.00,VWS V14.01,2014-04-17 11:06:00,
2014-04-17 04:11:00,60.9,38.9,29.83,West,262,4.0,8.0,44,0.00,,---,0.00,VWS V14.01,2014-04-17 11:11:00,
2014-04-17 04:16:00,60.8,38.8,29.83,WNW,293,3.0,8.0,44,0.00,,---,0.00,VWS V14.01,2014-04-17 11:16:00,
2014-04-17 04:21:00,60.7,38.7,29.83,West,271,3.0,8.0,44,0.00,,---,0.00,VWS V14.01,2014-04-17 11:21:00,
2014-04-17 04:26:00,60.3,38.3,29.83,SW,235,4.0,8.0,44,0.00,,---,0.00,VWS V14.01,2014-04-17 11:26:00,
2014-04-17 04:31:00,59.9,38.0,29.83,WSW,256,5.0,6.0,44,0.00,,---,0.00,VWS V14.01,2014-04-17 11:31:00,
2014-04-17 04:36:00,59.9,38.0,29.82,WNW,284,2.0,7.0,44,0.00,,---,0.00,VWS V14.01,2014-04-17 11:36:00,
2014-04-17 04:41:00,59.7,37.8,29.82,West,273,4.0,7.0,44,0.00,,---,0.00,VWS V14.01,2014-04-17 11:41:00,
2014-04-17 04:46:00,59.7,37.8,29.83,West,264,2.0,7.0,44,0.00,,---,0.00,VWS V14.01,2014-04-17 11:46:00,
2014-04-17 04:51:00,59.8,37.3,29.83,WSW,252,4.0,7.0,43,0.00,,---,0.00,VWS V14.01,2014-04-17 11:51:00,
2014-04-17 04:56:00,59.9,37.4,29.83,WNW,293,2.0,7.0,43,0.00,,---,0.00,VWS V14.01,2014-04-17 11:56:00,
2014-04-17 05:01:00,59.7,37.2,29.83,WNW,288,3.0,6.0,43,0.00,,---,0.00,VWS V14.01,2014-04-17 12:01:00,
2014-04-17 05:06:00,59.7,36.6,29.83,West,264,3.0,6.0,42,0.00,,---,0.00,VWS V14.01,2014-04-17 12:06:00,
2014-04-17 05:11:00,59.6,36.5,29.83,West,260,3.0,6.0,42,0.00,,---,0.00,VWS V14.01,2014-04-17 12:11:00,
2014-04-17 05:16:00,59.5,35.8,29.83,WSW,252,3.0,6.0,41,0.00,,---,0.00,VWS V14.01,2014-04-17 12:16:00,
2014-04-17 05:21:00,59.7,36.0,29.83,West,264,2.0,6.0,41,0.00,,---,0.00,VWS V14.01,2014-04-17 12:21:00,
2014-04-17 05:26:00,59.4,35.7,29.83,West,267,0.0,6.0,41,0.00,,---,0.00,VWS V14.01,2014-04-17 12:26:00,
2014-04-17 05:31:00,59.4,35.7,29.83,West,267,0.0,0.0,41,0.00,,---,0.00,VWS V14.01,2014-04-17 12:31:00,
2014-04-17 05:36:00,59.4,35.7,29.83,West,267,0.0,0.0,41,0.00,,---,0.00,VWS V14.01,2014-04-17 12:36:00,
2014-04-17 05:40:00,59.4,35.7,29.83,West,267,0.0,0.0,41,0.00,,---,0.00,VWS V14.01,2014-04-17 12:40:00,
2014-04-17 05:45:00,59.4,35.7,29.83,West,267,0.0,0.0,41,0.00,,---,0.00,VWS V14.01,2014-04-17 12:45:00,
2014-04-17 05:50:00,52.9,35.3,29.84,WNW,287,0.0,1.0,51,0.00,,---,0.00,VWS V14.01,2014-04-17 12:50:00,
2014-04-17 05:55:00,51.8,35.2,29.84,WNW,286,0.0,1.0,53,0.00,,---,0.00,VWS V14.01,2014-04-17 12:55:00,
2014-04-17 06:00:00,51.0,35.4,29.84,NW,305,1.0,2.0,55,0.00,,---,0.00,VWS V14.01,2014-04-17 13:00:00,
2014-04-17 06:05:00,50.5,35.4,29.84,WNW,302,0.0,2.0,56,0.00,,---,0.00,VWS V14.01,2014-04-17 13:05:00,
2014-04-17 06:10:00,50.2,36.0,29.84,West,277,0.0,2.0,58,0.00,,---,0.00,VWS V14.01,2014-04-17 13:10:00,
2014-04-17 06:16:00,50.2,36.0,29.84,West,278,0.0,2.0,58,0.00,,---,0.00,VWS V14.01,2014-04-17 13:16:00,
2014-04-17 06:21:00,50.1,36.8,29.85,West,278,0.0,2.0,60,0.00,,---,0.00,VWS V14.01,2014-04-17 13:21:00,
2014-04-17 06:26:00,50.1,36.8,29.85,West,266,0.0,2.0,60,0.00,,---,0.00,VWS V14.01,2014-04-17 13:26:00,
2014-04-17 06:31:00,50.1,37.2,29.85,WNW,288,0.0,1.0,61,0.00,,---,0.00,VWS V14.01,2014-04-17 13:31:00,
2014-04-17 06:36:00,50.5,37.6,29.85,WNW,283,1.0,1.0,61,0.00,,---,0.00,VWS V14.01,2014-04-17 13:36:00,
2014-04-17 06:41:00,51.2,37.8,29.85,WNW,300,1.0,1.0,60,0.00,,---,0.00,VWS V14.01,2014-04-17 13:41:00,
2014-04-17 06:46:00,52.2,37.4,29.85,WNW,290,0.0,1.0,57,0.00,,---,0.00,VWS V14.01,2014-04-17 13:46:00,
2014-04-17 06:51:00,53.3,37.1,29.86,WNW,291,0.0,1.0,54,0.00,,---,0.00,VWS V14.01,2014-04-17 13:51:00,
2014-04-17 06:56:00,54.2,37.5,29.86,WNW,293,0.0,2.0,53,0.00,,---,0.00,VWS V14.01,2014-04-17 13:56:00,
2014-04-17 07:01:00,55.1,37.8,29.86,WNW,293,0.0,2.0,52,0.00,,---,0.00,VWS V14.01,2014-04-17 14:01:00,
2014-04-17 07:06:00,56.0,38.2,29.86,WNW,293,2.0,2.0,51,0.00,,---,0.00,VWS V14.01,2014-04-17 14:06:00,
2014-04-17 07:11:00,57.2,38.8,29.87,WSW,252,2.0,3.0,50,0.00,,---,0.00,VWS V14.01,2014-04-17 14:11:00,
2014-04-17 07:16:00,58.2,39.2,29.87,NW,308,2.0,3.0,49,0.00,,---,0.00,VWS V14.01,2014-04-17 14:16:00,
2014-04-17 07:21:00,59.0,38.8,29.87,WNW,300,3.0,3.0,47,0.00,,---,0.00,VWS V14.01,2014-04-17 14:21:00,
2014-04-17 07:25:00,59.8,39.5,29.87,WNW,291,0.0,4.0,47,0.00,,---,0.00,VWS V14.01,2014-04-17 14:25:00,
2014-04-17 07:31:00,60.4,39.5,29.87,WNW,294,2.0,5.0,46,0.00,,---,0.00,VWS V14.01,2014-04-17 14:31:00,
2014-04-17 07:35:00,60.7,39.8,29.87,WNW,294,1.0,5.0,46,0.00,,---,0.00,VWS V14.01,2014-04-17 14:35:00,
2014-04-17 07:41:00,60.7,39.3,29.87,WNW,291,2.0,5.0,45,0.00,,---,0.00,VWS V14.01,2014-04-17 14:41:00,
2014-04-17 07:46:00,60.8,39.9,29.87,WNW,296,0.0,5.0,46,0.00,,---,0.00,VWS V14.01,2014-04-17 14:46:00,
2014-04-17 07:50:00,61.0,40.1,29.87,WNW,302,1.0,5.0,46,0.00,,---,0.00,VWS V14.01,2014-04-17 14:50:00,
2014-04-17 07:55:00,61.7,39.6,29.87,WNW,294,1.0,5.0,44,0.00,,---,0.00,VWS V14.01,2014-04-17 14:55:00,
2014-04-17 08:00:00,62.4,40.2,29.87,NW,308,1.0,3.0,44,0.00,,---,0.00,VWS V14.01,2014-04-17 15:00:00,
2014-04-17 08:05:00,62.8,40.0,29.87,WNW,296,1.0,3.0,43,0.00,,---,0.00,VWS V14.01,2014-04-17 15:05:00,
2014-04-17 08:10:00,63.1,40.3,29.87,WNW,296,1.0,3.0,43,0.00,,---,0.00,VWS V14.01,2014-04-17 15:10:00,
2014-04-17 08:16:00,63.3,40.5,29.87,WNW,283,0.0,3.0,43,0.00,,---,0.00,VWS V14.01,2014-04-17 15:16:00,
2014-04-17 08:21:00,63.8,41.5,29.87,WNW,283,0.0,3.0,44,0.00,,---,0.00,VWS V14.01,2014-04-17 15:21:00,
2014-04-17 08:26:00,64.7,41.1,29.87,WNW,299,1.0,3.0,42,0.00,,---,0.00,VWS V14.01,2014-04-17 15:26:00,
2014-04-17 08:31:00,65.6,41.3,29.87,WSW,257,0.0,1.0,41,0.00,,---,0.00,VWS V14.01,2014-04-17 15:31:00,
2014-04-17 08:36:00,66.6,40.2,29.87,West,260,1.0,2.0,38,0.00,,---,0.00,VWS V14.01,2014-04-17 15:36:00,
2014-04-17 08:41:00,67.6,42.4,29.87,WSW,240,0.0,2.0,40,0.00,,---,0.00,VWS V14.01,2014-04-17 15:41:00,
2014-04-17 08:46:00,68.7,41.4,29.87,WSW,246,0.0,2.0,37,0.00,,---,0.00,VWS V14.01,2014-04-17 15:46:00,
2014-04-17 08:51:00,69.0,39.5,29.87,WSW,238,0.0,2.0,34,0.00,,---,0.00,VWS V14.01,2014-04-17 15:51:00,
2014-04-17 08:56:00,69.7,40.1,29.87,SSW,210,0.0,2.0,34,0.00,,---,0.00,VWS V14.01,2014-04-17 15:56:00,
2014-04-17 09:01:00,70.3,39.9,29.87,SSE,157,1.0,2.0,33,0.00,,---,0.00,VWS V14.01,2014-04-17 16:01:00,
2014-04-17 09:06:00,70.1,39.7,29.88,SSE,159,2.0,3.0,33,0.00,,---,0.00,VWS V14.01,2014-04-17 16:06:00,
2014-04-17 09:11:00,70.2,41.3,29.88,SW,217,3.0,4.0,35,0.00,,---,0.00,VWS V14.01,2014-04-17 16:11:00,
2014-04-17 09:16:00,70.0,40.4,29.88,South,191,2.0,4.0,34,0.00,,---,0.00,VWS V14.01,2014-04-17 16:16:00,
2014-04-17 09:21:00,70.3,39.9,29.88,SE,137,0.0,4.0,33,0.00,,---,0.00,VWS V14.01,2014-04-17 16:21:00,
2014-04-17 09:26:00,70.9,38.8,29.88,ESE,121,1.0,4.0,31,0.00,,---,0.00,VWS V14.01,2014-04-17 16:26:00,
2014-04-17 09:31:00,71.2,39.0,29.88,ENE,75,2.0,7.0,31,0.00,,---,0.00,VWS V14.01,2014-04-17 16:31:00,
2014-04-17 09:36:00,71.2,37.3,29.88,ESE,109,2.0,7.0,29,0.00,,---,0.00,VWS V14.01,2014-04-17 16:36:00,
2014-04-17 09:40:00,71.6,38.6,29.88,SE,141,2.0,7.0,30,0.00,,---,0.00,VWS V14.01,2014-04-17 16:40:00,
2014-04-17 09:45:00,71.7,37.8,29.88,SE,134,2.0,7.0,29,0.00,,---,0.00,VWS V14.01,2014-04-17 16:45:00,
2014-04-17 09:50:00,71.6,35.9,29.88,ENE,77,2.0,7.0,27,0.00,,---,0.00,VWS V14.01,2014-04-17 16:50:00,
2014-04-17 09:55:00,71.7,37.8,29.88,NE,44,0.0,7.0,29,0.00,,---,0.00,VWS V14.01,2014-04-17 16:55:00,
2014-04-17 10:00:00,72.2,38.2,29.88,East,99,3.0,5.0,29,0.00,,---,0.00,VWS V14.01,2014-04-17 17:00:00,
2014-04-17 10:05:00,72.7,35.9,29.89,ENE,77,2.0,5.0,26,0.00,,---,0.00,VWS V14.01,2014-04-17 17:05:00,
2014-04-17 10:10:00,73.4,36.5,29.89,ESE,106,1.0,5.0,26,0.00,,---,0.00,VWS V14.01,2014-04-17 17:10:00,
2014-04-17 10:15:00,73.3,37.3,29.89,NE,50,1.0,5.0,27,0.00,,---,0.00,VWS V14.01,2014-04-17 17:15:00,
2014-04-17 10:20:00,73.6,35.6,29.89,NE,37,2.0,5.0,25,0.00,,---,0.00,VWS V14.01,2014-04-17 17:20:00,
2014-04-17 10:25:00,73.6,36.6,29.89,NE,43,4.0,6.0,26,0.00,,---,0.00,VWS V14.01,2014-04-17 17:25:00,
2014-04-17 10:30:00,74.1,36.1,29.89,ENE,77,1.0,6.0,25,0.00,,---,0.00,VWS V14.01,2014-04-17 17:30:00,
2014-04-17 10:35:00,74.8,35.6,29.89,ESE,113,2.0,6.0,24,0.00,,---,0.00,VWS V14.01,2014-04-17 17:35:00,
2014-04-17 10:40:00,75.1,35.9,29.89,ESE,113,0.0,6.0,24,0.00,,---,0.00,VWS V14.01,2014-04-17 17:40:00,
2014-04-17 10:45:00,75.3,37.1,29.89,NE,44,2.0,6.0,25,0.00,,---,0.00,VWS V14.01,2014-04-17 17:45:00,
2014-04-17 10:50:00,75.5,36.2,29.89,NE,37,3.0,6.0,24,0.00,,---,0.00,VWS V14.01,2014-04-17 17:50:00,
2014-04-17 10:55:00,76.1,36.7,29.89,NNE,24,2.0,6.0,24,0.00,,---,0.00,VWS V14.01,2014-04-17 17:55:00,
2014-04-17 11:00:00,76.5,36.0,29.89,NNE,19,2.0,6.0,23,0.00,,---,0.00,VWS V14.01,2014-04-17 18:00:00,
2014-04-17 11:05:00,76.5,34.9,29.89,SW,233,1.0,6.0,22,0.00,,---,0.00,VWS V14.01,2014-04-17 18:05:00,
2014-04-17 11:10:00,77.4,36.7,29.89,ESE,115,0.0,6.0,23,0.00,,---,0.00,VWS V14.01,2014-04-17 18:10:00,
2014-04-17 11:15:00,78.0,36.1,29.89,NNW,345,3.0,6.0,22,0.00,,---,0.00,VWS V14.01,2014-04-17 18:15:00,
2014-04-17 11:20:00,77.7,35.9,29.89,NNE,26,1.0,6.0,22,0.00,,---,0.00,VWS V14.01,2014-04-17 18:20:00,
2014-04-17 11:25:00,77.5,36.8,29.89,ENE,72,0.0,6.0,23,0.00,,---,0.00,VWS V14.01,2014-04-17 18:25:00,
2014-04-17 11:30:00,77.4,36.7,29.89,SW,217,1.0,3.0,23,0.00,,---,0.00,VWS V14.01,2014-04-17 18:30:00,
2014-04-17 11:35:00,78.4,36.5,29.90,NW,305,1.0,3.0,22,0.00,,---,0.00,VWS V14.01,2014-04-17 18:35:00,
2014-04-17 11:40:00,78.6,36.6,29.90,WSW,248,0.0,3.0,22,0.00,,---,0.00,VWS V14.01,2014-04-17 18:40:00,
2014-04-17 11:45:00,79.3,38.3,29.90,SW,232,2.0,4.0,23,0.00,,---,0.00,VWS V14.01,2014-04-17 18:45:00,
2014-04-17 11:50:00,79.4,37.3,29.89,SE,125,0.0,4.0,22,0.00,,---,0.00,VWS V14.01,2014-04-17 18:50:00,
2014-04-17 11:55:00,79.6,36.3,29.89,NE,56,0.0,5.0,21,0.00,,---,0.00,VWS V14.01,2014-04-17 18:55:00,
2014-04-17 12:01:00,79.8,37.6,29.89,NW,322,1.0,4.0,22,0.00,,---,0.00,VWS V14.01,2014-04-17 19:01:00,
2014-04-17 12:06:00,80.1,37.9,29.89,West,274,1.0,4.0,22,0.00,,---,0.00,VWS V14.01,2014-04-17 19:06:00,
2014-04-17 12:11:00,81.3,37.7,29.89,SSE,147,2.0,5.0,21,0.00,,---,0.00,VWS V14.01,2014-04-17 19:11:00,
2014-04-17 12:16:00,81.6,37.9,29.89,WNW,283,0.0,5.0,21,0.00,,---,0.00,VWS V14.01,2014-04-17 19:16:00,
2014-04-17 12:21:00,81.0,38.6,29.89,NNW,328,1.0,5.0,22,0.00,,---,0.00,VWS V14.01,2014-04-17 19:21:00,
2014-04-17 12:26:00,80.5,38.2,29.89,West,273,1.0,6.0,22,0.00,,---,0.00,VWS V14.01,2014-04-17 19:26:00,
2014-04-17 12:32:00,80.7,38.4,29.88,ENE,72,1.0,5.0,22,0.00,,---,0.00,VWS V14.01,2014-04-17 19:32:00,
2014-04-17 12:37:00,81.3,40.0,29.88,SSE,148,3.0,12.0,23,0.00,,---,0.00,VWS V14.01,2014-04-17 19:37:00,
2014-04-17 12:42:00,82.1,38.3,29.88,SSW,208,3.0,12.0,21,0.00,,---,0.00,VWS V14.01,2014-04-17 19:42:00,
2014-04-17 12:47:00,82.0,38.2,29.88,SE,136,5.0,12.0,21,0.00,,---,0.00,VWS V14.01,2014-04-17 19:47:00,
2014-04-17 12:52:00,81.2,37.6,29.87,ESE,122,3.0,12.0,21,0.00,,---,0.00,VWS V14.01,2014-04-17 19:52:00,
2014-04-17 12:57:00,81.3,38.9,29.87,SSE,159,2.0,12.0,22,0.00,,---,0.00,VWS V14.01,2014-04-17 19:57:00,
2014-04-17 13:02:00,81.9,36.9,29.87,SSW,210,5.0,7.0,20,0.00,,---,0.00,VWS V14.01,2014-04-17 20:02:00,
2014-04-17 13:07:00,82.3,36.0,29.87,SE,145,4.0,7.0,19,0.00,,---,0.00,VWS V14.01,2014-04-17 20:07:00,
2014-04-17 13:12:00,82.3,33.2,29.86,SE,131,3.0,10.0,17,0.00,,---,0.00,VWS V14.01,2014-04-17 20:12:00,
2014-04-17 13:17:00,81.4,35.2,29.87,SSE,156,4.0,10.0,19,0.00,,---,0.00,VWS V14.01,2014-04-17 20:17:00,
2014-04-17 13:22:00,81.1,35.0,29.87,SSW,207,4.0,10.0,19,0.00,,---,0.00,VWS V14.01,2014-04-17 20:22:00,
2014-04-17 13:27:00,81.7,35.5,29.87,SSW,194,2.0,3.0,19,0.00,,---,0.00,VWS V14.01,2014-04-17 20:27:00,
2014-04-17 13:32:00,81.6,35.4,29.87,SE,138,5.0,11.0,19,0.00,,---,0.00,VWS V14.01,2014-04-17 20:32:00,
2014-04-17 13:37:00,81.4,35.2,29.87,South,172,7.0,11.0,19,0.00,,---,0.00,VWS V14.01,2014-04-17 20:37:00,
2014-04-17 13:42:00,81.4,35.2,29.87,SSW,201,5.0,11.0,19,0.00,,---,0.00,VWS V14.01,2014-04-17 20:42:00,
2014-04-17 13:47:00,81.7,36.8,29.87,SSW,212,8.0,11.0,20,0.00,,---,0.00,VWS V14.01,2014-04-17 20:47:00,
2014-04-17 13:52:00,81.7,34.1,29.87,SSW,210,7.0,11.0,18,0.00,,---,0.00,VWS V14.01,2014-04-17 20:52:00,
2014-04-17 13:57:00,81.7,35.5,29.87,SSW,207,5.0,11.0,19,0.00,,---,0.00,VWS V14.01,2014-04-17 20:57:00,
2014-04-17 14:02:00,81.2,36.4,29.87,SSW,207,6.0,10.0,20,0.00,,---,0.00,VWS V14.01,2014-04-17 21:02:00,
2014-04-17 14:07:00,81.1,37.5,29.87,WSW,257,4.0,10.0,21,0.00,,---,0.00,VWS V14.01,2014-04-17 21:07:00,
2014-04-17 14:12:00,81.4,35.2,29.87,SSW,207,8.0,11.0,19,0.00,,---,0.00,VWS V14.01,2014-04-17 21:12:00,
2014-04-17 14:17:00,81.3,36.4,29.86,WSW,250,2.0,11.0,20,0.00,,---,0.00,VWS V14.01,2014-04-17 21:17:00,
2014-04-17 14:22:00,81.7,35.5,29.86,South,187,6.0,11.0,19,0.00,,---,0.00,VWS V14.01,2014-04-17 21:22:00,
2014-04-17 14:27:00,82.3,33.2,29.86,West,277,7.0,11.0,17,0.00,,---,0.00,VWS V14.01,2014-04-17 21:27:00,
2014-04-17 14:32:00,82.3,31.7,29.86,SSE,158,9.0,12.0,16,0.00,,---,0.00,VWS V14.01,2014-04-17 21:32:00,
2014-04-17 14:37:00,81.7,31.2,29.86,South,191,9.0,13.0,16,0.00,,---,0.00,VWS V14.01,2014-04-17 21:37:00,
2014-04-17 14:42:00,81.8,29.7,29.86,SE,134,4.0,13.0,15,0.00,,---,0.00,VWS V14.01,2014-04-17 21:42:00,
2014-04-17 14:47:00,81.5,29.4,29.86,SE,137,8.0,13.0,15,0.00,,---,0.00,VWS V14.01,2014-04-17 21:47:00,
2014-04-17 14:52:00,81.1,30.7,29.86,SSE,168,6.0,13.0,16,0.00,,---,0.00,VWS V14.01,2014-04-17 21:52:00,
2014-04-17 14:57:00,80.5,30.2,29.86,SSE,163,7.0,13.0,16,0.00,,---,0.00,VWS V14.01,2014-04-17 21:57:00,
2014-04-17 15:02:00,80.5,30.2,29.86,SSW,210,2.0,11.0,16,0.00,,---,0.00,VWS V14.01,2014-04-17 22:02:00,
2014-04-17 15:07:00,80.3,31.6,29.86,South,181,5.0,11.0,17,0.00,,---,0.00,VWS V14.01,2014-04-17 22:07:00,
2014-04-17 15:12:00,80.5,30.2,29.86,SSW,195,6.0,11.0,16,0.00,,---,0.00,VWS V14.01,2014-04-17 22:12:00,
2014-04-17 15:17:00,80.4,31.6,29.86,SSW,208,5.0,12.0,17,0.00,,---,0.00,VWS V14.01,2014-04-17 22:17:00,
2014-04-17 15:22:00,80.9,32.0,29.86,West,274,5.0,12.0,17,0.00,,---,0.00,VWS V14.01,2014-04-17 22:22:00,
2014-04-17 15:27:00,81.0,30.6,29.86,WNW,296,4.0,12.0,16,0.00,,---,0.00,VWS V14.01,2014-04-17 22:27:00,
2014-04-17 15:32:00,80.3,30.1,29.85,SW,221,1.0,7.0,16,0.00,,---,0.00,VWS V14.01,2014-04-17 22:32:00,
2014-04-17 15:37:00,80.5,34.5,29.85,South,178,2.0,7.0,19,0.00,,---,0.00,VWS V14.01,2014-04-17 22:37:00,
2014-04-17 15:42:00,80.8,34.7,29.85,SW,226,2.0,7.0,19,0.00,,---,0.00,VWS V14.01,2014-04-17 22:42:00,
2014-04-17 15:47:00,80.6,33.2,29.85,SSW,207,3.0,7.0,18,0.00,,---,0.00,VWS V14.01,2014-04-17 22:47:00,
2014-04-17 15:52:00,80.6,34.6,29.85,NW,312,1.0,7.0,19,0.00,,---,0.00,VWS V14.01,2014-04-17 22:52:00,
2014-04-17 15:57:00,81.1,35.0,29.84,West,266,2.0,12.0,19,0.00,,---,0.00,VWS V14.01,2014-04-17 22:57:00,
2014-04-17 16:02:00,81.2,33.7,29.84,South,191,8.0,10.0,18,0.00,,---,0.00,VWS V14.01,2014-04-17 23:02:00,
2014-04-17 16:07:00,80.9,32.0,29.84,SE,128,2.0,10.0,17,0.00,,---,0.00,VWS V14.01,2014-04-17 23:07:00,
2014-04-17 16:12:00,81.2,35.1,29.84,SE,130,4.0,10.0,19,0.00,,---,0.00,VWS V14.01,2014-04-17 23:12:00,
2014-04-17 16:17:00,81.1,33.6,29.84,WNW,284,2.0,10.0,18,0.00,,---,0.00,VWS V14.01,2014-04-17 23:17:00,
2014-04-17 16:22:00,81.5,35.3,29.84,West,259,3.0,10.0,19,0.00,,---,0.00,VWS V14.01,2014-04-17 23:22:00,
2014-04-17 16:27:00,80.8,34.7,29.84,SW,224,0.0,10.0,19,0.00,,---,0.00,VWS V14.01,2014-04-17 23:27:00,
2014-04-17 16:32:00,79.7,36.3,29.84,SW,215,2.0,7.0,21,0.00,,---,0.00,VWS V14.01,2014-04-17 23:32:00,
2014-04-17 16:37:00,79.0,35.8,29.84,WSW,248,3.0,9.0,21,0.00,,---,0.00,VWS V14.01,2014-04-17 23:37:00,
2014-04-17 16:42:00,78.3,38.6,29.84,South,170,4.0,10.0,24,0.00,,---,0.00,VWS V14.01,2014-04-17 23:42:00,
2014-04-17 16:47:00,77.8,40.2,29.84,SSW,195,4.0,10.0,26,0.00,,---,0.00,VWS V14.01,2014-04-17 23:47:00,
2014-04-17 16:52:00,77.7,37.0,29.84,SW,218,5.0,10.0,23,0.00,,---,0.00,VWS V14.01,2014-04-17 23:52:00,
2014-04-17 16:57:00,77.4,37.8,29.84,SSW,208,1.0,10.0,24,0.00,,---,0.00,VWS V14.01,2014-04-17 23:57:00,